KMBL

Manistee Co-Blacker Airport

Manistee, Michigan, USA
METAR KMBL 220956Z AUTO 00000KT 10SM OVC007 11/10 A3000 RMK AO2 SLP180 P0001 T01060100
Observed Flight Rules
May-22 @ 09:56 UTC (19 minutes ago) Instrument Flight Rules
Visibility Clouds
10 miles
  • Overcast at 700' AGL
Temperatures Readings Precipitation
Current 11°C / 52°F
Dewpoint 10°C / 50°F
Humidity 94%
Altimeter 30" Hg
Pressure 1018 hPa
Elevation 189
Current Rain 0.01
METAR KMBL 220956Z AUTO 00000KT 10SM OVC007 11/10 A3000 RMK AO2 SLP180 P0001 T01060100
Observed Flight Rules
May-22 @ 09:56 UTC
(19 minutes ago)
IFR
Clouds
  • Overcast at 700' AGL
Temperature Dewpoint
11°C / 52°F 10°C / 50°F
Humidity Altimeter Pressure
94% 30" Hg 1018 hPa
Current Rain
0.01